Hlavní strana
METAR-TAF:

METAR-TAF

Letiště :

Dar es Salaam, Tanzanie

zeměpisná šířka: 06-52S, zeměpisná délka: 039-12E, výška: 55 m

Aktuální stav počasí

Zpráva byla vytvořena před 43 minutami, v 10:00 UTC
Východojihovýchodní vítr 13 kt
Teplota 31°C
Vlhkost vzduchu 63%
Tlak 1015 hPa
Viditelnost 10 km a více
Polojasno ve výšce 2400 ft
Polojasno ve výšce 9000 ft

METAR: HTDA 261000Z 12013KT 9999 SCT024 SCT090 31/23 Q1015 NOSIG

Čas: 13:43 (10:43 UTC)

Předpověď počasí

Zpráva byla vytvořena před 5 hodinami a 43 minutami, v 05:00 UTC
Předpověď platná od 26 v 06 UTC do 27 v 12 UTC
Jižní vítr 10 kt
Viditelnost 10 km a více
Polojasno ve výšce 1500 ft
Dočasný
od 26 v 07 UTC do 26 v 11 UTC
Oblačno až skoro zataženo ve výšce 1700 ft
Skoro jasno ve výšce 1800 ft, Cumulonimbus.
déšť
Změna
od 26 v 14 UTC do 26 v 17 UTC
Jihovýchodní vítr 10 kt
Polojasno ve výšce 2000 ft

TAF: HTDA 260500Z 2606/2712 18010KT 9999 SCT015 TEMPO 2607/2611 RA BKN017 FEW018CB BECMG 2614/2617 13010KT SCT020

Stav a předpovědi počasí z více než 4 000 letišť (zprávy METAR a TAF).

Červené a žluté tečky na mapě představují dostupné meteorologické stanice.

Když kurzor umístíte na tečku, zobrazí se název stanice.

Pak kliknutím zobrazíte stav a předpověď počasí.

Chcete-li změnit mapu, kliknutím na zelené tlačítko se znaménkem +mapu přiblížíte, kliknutím na zelené tlačítko se znaménkem – mapu oddálíte a kliknutím na zelené šipky přejdete na sousední mapy.


METAR-TAF: